Time;durP1;ratioP1;P1;durP2;ratioP2;P2;SDS_P1;SDS_P2;PMS_P1;PMS_P2;Temp;Humidity;BMP_temperature;BMP_pressure;BME280_temperature;BME280_humidity;BME280_pressure;Samples;Min_cycle;Max_cycle;Signal;HPM_P1;HPM_P2
2023/06/24 00:01:03;;;;;;;;;;;16.30;99.90;;;;;;7308869;19;9357;-74
2023/06/24 00:03:37;;;;;;;;;;;16.30;99.90;;;;;;7309788;19;9245;-74
2023/06/24 00:06:10;;;;;;;;;;;16.30;99.90;;;;;;7306078;19;9276;-74
2023/06/24 00:08:39;;;;;;;;;;;16.20;99.90;;;;;;7307704;19;9873;-74
2023/06/24 00:11:08;;;;;;;;;;;16.20;99.90;;;;;;7307663;19;9009;-73
2023/06/24 00:13:37;;;;;;;;;;;16.20;99.90;;;;;;7308594;19;10380;-74
2023/06/24 00:16:06;;;;;;;;;;;16.20;99.90;;;;;;7307597;19;9368;-74
2023/06/24 00:18:36;;;;;;;;;;;16.10;99.90;;;;;;7308819;19;9496;-74
2023/06/24 00:21:08;;;;;;;;;;;16.10;99.90;;;;;;7307556;19;9261;-74
2023/06/24 00:23:38;;;;;;;;;;;16.10;99.90;;;;;;7307451;19;10138;-74
2023/06/24 00:26:07;;;;;;;;;;;16.00;99.90;;;;;;7305667;19;9601;-74
2023/06/24 00:28:36;;;;;;;;;;;16.10;99.90;;;;;;7307948;19;9268;-74
2023/06/24 00:31:05;;;;;;;;;;;16.10;99.90;;;;;;7306492;19;10424;-74
2023/06/24 00:33:35;;;;;;;;;;;16.10;99.90;;;;;;7308361;19;9293;-74
2023/06/24 00:36:05;;;;;;;;;;;16.10;99.90;;;;;;7306137;19;9307;-73
2023/06/24 00:38:36;;;;;;;;;;;16.10;99.90;;;;;;7307247;19;9638;-73
2023/06/24 00:41:06;;;;;;;;;;;16.10;99.90;;;;;;7305291;19;9883;-74
2023/06/24 00:43:36;;;;;;;;;;;16.10;99.90;;;;;;7304204;19;9285;-74
2023/06/24 00:46:06;;;;;;;;;;;16.10;99.90;;;;;;7304598;19;9697;-74
2023/06/24 00:48:35;;;;;;;;;;;16.00;99.90;;;;;;7309050;19;9455;-74
2023/06/24 00:51:04;;;;;;;;;;;16.10;99.90;;;;;;7309691;19;9265;-74
2023/06/24 00:53:36;;;;;;;;;;;16.00;99.90;;;;;;7306316;19;10664;-74
2023/06/24 00:56:06;;;;;;;;;;;15.90;99.90;;;;;;7306618;19;8936;-74
2023/06/24 00:58:39;;;;;;;;;;;15.90;99.90;;;;;;7308263;19;9276;-74
2023/06/24 01:01:10;;;;;;;;;;;15.90;99.90;;;;;;7304579;19;9815;-74
2023/06/24 01:03:41;;;;;;;;;;;16.00;99.90;;;;;;7307681;19;9131;-74
2023/06/24 01:06:11;;;;;;;;;;;16.00;99.90;;;;;;7303293;19;9268;-74
2023/06/24 01:08:43;;;;;;;;;;;16.00;99.90;;;;;;7306943;19;9202;-74
2023/06/24 01:11:12;;;;;;;;;;;16.00;99.90;;;;;;7304682;19;9303;-73
2023/06/24 01:13:41;;;;;;;;;;;16.00;99.90;;;;;;7305875;19;10124;-74
2023/06/24 01:16:19;;;;;;;;;;;16.00;99.90;;;;;;7306642;19;9426;-74
2023/06/24 01:18:56;;;;;;;;;;;16.00;99.90;;;;;;7306442;19;9261;-74
2023/06/24 01:21:42;;;;;;;;;;;16.00;99.90;;;;;;7306708;19;9362;-74
2023/06/24 01:24:40;;;;;;;;;;;16.10;99.90;;;;;;7304951;19;10820;-74
2023/06/24 01:27:44;;;;;;;;;;;16.00;99.90;;;;;;7304101;19;10194;-74
2023/06/24 01:30:52;;;;;;;;;;;16.00;99.90;;;;;;7313783;19;10123;-74
2023/06/24 01:33:31;;;;;;;;;;;15.90;99.90;;;;;;7308935;19;9206;-73
2023/06/24 01:36:04;;;;;;;;;;;15.90;99.90;;;;;;7313363;19;9408;-74
2023/06/24 01:38:39;;;;;;;;;;;15.80;99.90;;;;;;7314698;19;9360;-74
2023/06/24 01:41:10;;;;;;;;;;;15.80;99.90;;;;;;7315753;19;8944;-74
2023/06/24 01:43:46;;;;;;;;;;;15.70;99.90;;;;;;7312742;19;9567;-74
2023/06/24 01:46:19;;;;;;;;;;;15.70;99.90;;;;;;7312045;19;9221;-74
2023/06/24 01:48:52;;;;;;;;;;;15.80;99.90;;;;;;7313954;19;9253;-74
2023/06/24 01:51:23;;;;;;;;;;;15.80;99.90;;;;;;7315946;19;9852;-73
2023/06/24 01:53:56;;;;;;;;;;;15.80;99.90;;;;;;7314369;19;9241;-74
2023/06/24 01:56:29;;;;;;;;;;;15.90;99.90;;;;;;7313099;19;9478;-74
2023/06/24 01:59:03;;;;;;;;;;;15.90;99.90;;;;;;7313377;19;9296;-74
2023/06/24 02:01:36;;;;;;;;;;;15.90;99.90;;;;;;7311622;19;9269;-74
2023/06/24 02:04:12;;;;;;;;;;;15.80;99.90;;;;;;7316238;19;9268;-73
2023/06/24 02:06:45;;;;;;;;;;;15.90;99.90;;;;;;7311359;19;10318;-74
2023/06/24 02:09:15;;;;;;;;;;;15.80;99.90;;;;;;7314240;19;9249;-74
2023/06/24 02:11:45;;;;;;;;;;;15.70;99.90;;;;;;7310574;19;8944;-73
2023/06/24 02:14:18;;;;;;;;;;;15.60;99.90;;;;;;7312054;19;9290;-74
2023/06/24 02:16:50;;;;;;;;;;;15.70;99.90;;;;;;7310880;19;9257;-74
2023/06/24 02:19:23;;;;;;;;;;;15.60;99.90;;;;;;7312032;19;8944;-74
2023/06/24 02:21:55;;;;;;;;;;;15.70;99.90;;;;;;7310613;19;9412;-74
2023/06/24 02:24:26;;;;;;;;;;;15.70;99.90;;;;;;7311042;19;9471;-74
2023/06/24 02:26:56;;;;;;;;;;;15.60;99.90;;;;;;7309055;19;9253;-74
2023/06/24 02:29:29;;;;;;;;;;;15.70;99.90;;;;;;7312343;19;9680;-74
2023/06/24 02:31:58;;;;;;;;;;;15.70;99.90;;;;;;7311054;19;9361;-74
2023/06/24 02:34:31;;;;;;;;;;;15.70;99.90;;;;;;7308664;19;9311;-74
2023/06/24 02:37:00;;;;;;;;;;;15.60;99.90;;;;;;7311368;19;10191;-74
2023/06/24 02:39:29;;;;;;;;;;;15.50;99.90;;;;;;7309840;19;9242;-73
2023/06/24 02:41:58;;;;;;;;;;;15.40;99.90;;;;;;7310293;19;10242;-74
2023/06/24 02:44:27;;;;;;;;;;;15.40;99.90;;;;;;7309944;19;9202;-74
2023/06/24 02:46:59;;;;;;;;;;;15.30;99.90;;;;;;7308324;19;9257;-73
2023/06/24 02:49:31;;;;;;;;;;;15.30;99.90;;;;;;7309223;19;9324;-74
2023/06/24 02:52:00;;;;;;;;;;;15.30;99.90;;;;;;7315062;19;9261;-74
2023/06/24 02:54:30;;;;;;;;;;;15.30;99.90;;;;;;7310458;19;9235;-74
2023/06/24 02:57:01;;;;;;;;;;;15.30;99.90;;;;;;7311673;19;9458;-74
2023/06/24 02:59:30;;;;;;;;;;;15.30;99.90;;;;;;7308909;19;9453;-73
2023/06/24 03:02:00;;;;;;;;;;;15.30;99.90;;;;;;7309475;19;9733;-74
2023/06/24 03:04:33;;;;;;;;;;;15.30;99.90;;;;;;7306628;19;9261;-74
2023/06/24 03:07:03;;;;;;;;;;;15.30;99.90;;;;;;7308554;19;9217;-73
2023/06/24 03:09:36;;;;;;;;;;;15.20;99.90;;;;;;7309519;19;9491;-73
2023/06/24 03:12:08;;;;;;;;;;;15.20;99.90;;;;;;7309735;19;9632;-73
2023/06/24 03:14:37;;;;;;;;;;;15.20;99.90;;;;;;7310276;19;9575;-73
2023/06/24 03:17:06;;;;;;;;;;;15.20;99.90;;;;;;7309415;19;9199;-74
2023/06/24 03:19:38;;;;;;;;;;;15.20;99.90;;;;;;7310022;19;9360;-74
2023/06/24 03:22:07;;;;;;;;;;;15.20;99.90;;;;;;7308256;19;9215;-73
2023/06/24 03:24:37;;;;;;;;;;;15.20;99.90;;;;;;7310333;19;9218;-74
2023/06/24 03:27:07;;;;;;;;;;;15.20;99.90;;;;;;7308420;19;9002;-73
2023/06/24 03:29:36;;;;;;;;;;;15.10;99.90;;;;;;7309098;19;9383;-73
2023/06/24 03:32:06;;;;;;;;;;;15.20;99.90;;;;;;7308411;19;9275;-73
2023/06/24 03:34:37;;;;;;;;;;;15.10;99.90;;;;;;7313398;19;9337;-74
2023/06/24 03:37:07;;;;;;;;;;;15.00;99.90;;;;;;7306934;19;9412;-73
2023/06/24 03:39:36;;;;;;;;;;;15.00;99.90;;;;;;7310462;19;9205;-73
2023/06/24 03:42:06;;;;;;;;;;;15.00;99.90;;;;;;7308724;19;9257;-73
2023/06/24 03:44:35;;;;;;;;;;;14.90;99.90;;;;;;7308777;19;9551;-74
2023/06/24 03:47:04;;;;;;;;;;;14.90;99.90;;;;;;7307477;19;9998;-74
2023/06/24 03:49:34;;;;;;;;;;;14.90;99.90;;;;;;7308763;19;9286;-73
2023/06/24 03:52:08;;;;;;;;;;;14.80;99.90;;;;;;7312808;19;9101;-74
2023/06/24 03:54:38;;;;;;;;;;;14.90;99.90;;;;;;7309873;19;9320;-74
2023/06/24 03:57:08;;;;;;;;;;;14.90;99.90;;;;;;7314832;19;9526;-73
2023/06/24 03:59:37;;;;;;;;;;;14.80;99.90;;;;;;7308825;19;9399;-73
2023/06/24 04:02:08;;;;;;;;;;;14.80;99.90;;;;;;7311199;19;9265;-74
2023/06/24 04:04:37;;;;;;;;;;;14.80;99.90;;;;;;7309127;19;9308;-73
2023/06/24 04:07:09;;;;;;;;;;;14.80;99.90;;;;;;7304666;19;9450;-73
2023/06/24 04:09:38;;;;;;;;;;;14.90;99.90;;;;;;7308180;19;8944;-74
2023/06/24 04:12:08;;;;;;;;;;;14.80;99.90;;;;;;7309828;19;9426;-74
2023/06/24 04:14:37;;;;;;;;;;;14.80;99.90;;;;;;7307280;19;9306;-74
2023/06/24 04:17:06;;;;;;;;;;;14.90;99.90;;;;;;7307828;19;9592;-74
2023/06/24 04:19:35;;;;;;;;;;;15.00;99.90;;;;;;7306681;19;9265;-74
2023/06/24 04:22:04;;;;;;;;;;;15.00;99.90;;;;;;7308438;19;9232;-73
2023/06/24 04:24:36;;;;;;;;;;;15.00;99.90;;;;;;7306470;19;9320;-73
2023/06/24 04:27:08;;;;;;;;;;;15.10;99.90;;;;;;7307585;19;9548;-73
2023/06/24 04:29:37;;;;;;;;;;;15.10;99.90;;;;;;7306384;19;8944;-74
2023/06/24 04:32:07;;;;;;;;;;;15.20;99.90;;;;;;7307546;19;10154;-73
2023/06/24 04:34:36;;;;;;;;;;;15.20;99.90;;;;;;7309681;19;9468;-73
2023/06/24 04:37:06;;;;;;;;;;;15.30;99.90;;;;;;7308508;19;10074;-73
2023/06/24 04:39:38;;;;;;;;;;;15.40;99.90;;;;;;7308405;19;9329;-74
2023/06/24 04:42:07;;;;;;;;;;;15.40;99.90;;;;;;7306408;19;9262;-74
2023/06/24 04:44:36;;;;;;;;;;;15.40;99.90;;;;;;7309843;19;9028;-73
2023/06/24 04:47:06;;;;;;;;;;;15.40;99.90;;;;;;7306287;19;9236;-73
2023/06/24 04:49:35;;;;;;;;;;;15.40;99.90;;;;;;7308435;19;10220;-74
2023/06/24 04:52:05;;;;;;;;;;;15.50;99.90;;;;;;7311224;19;9260;-73
2023/06/24 04:54:36;;;;;;;;;;;15.60;99.90;;;;;;7307906;19;9261;-74
2023/06/24 04:57:08;;;;;;;;;;;15.60;99.90;;;;;;7308170;19;8944;-74
2023/06/24 04:59:38;;;;;;;;;;;15.60;99.90;;;;;;7307635;19;9245;-73
2023/06/24 05:02:07;;;;;;;;;;;15.70;99.90;;;;;;7305650;19;9704;-74
2023/06/24 05:04:36;;;;;;;;;;;15.70;99.90;;;;;;7306916;19;9371;-73
2023/06/24 05:07:05;;;;;;;;;;;15.80;99.90;;;;;;7304607;19;8945;-73
2023/06/24 05:09:38;;;;;;;;;;;16.10;99.90;;;;;;7306069;19;9277;-73
2023/06/24 05:12:08;;;;;;;;;;;16.40;99.90;;;;;;7306249;19;9278;-74
2023/06/24 05:14:37;;;;;;;;;;;17.00;99.90;;;;;;7303650;19;9541;-74
2023/06/24 05:17:07;;;;;;;;;;;17.20;99.90;;;;;;7307387;19;11362;-74
2023/06/24 05:19:36;;;;;;;;;;;17.10;99.90;;;;;;7304273;19;10941;-73
2023/06/24 05:22:05;;;;;;;;;;;17.00;99.90;;;;;;7306784;19;9001;-74
2023/06/24 05:24:37;;;;;;;;;;;16.90;99.90;;;;;;7304937;19;9634;-73
2023/06/24 05:27:09;;;;;;;;;;;16.80;99.90;;;;;;7307713;19;9261;-74
2023/06/24 05:29:38;;;;;;;;;;;16.80;99.90;;;;;;7302914;19;10874;-74
2023/06/24 05:32:08;;;;;;;;;;;16.80;99.90;;;;;;7306875;19;10978;-74
2023/06/24 05:34:37;;;;;;;;;;;16.80;99.90;;;;;;7304631;19;9318;-74
2023/06/24 05:37:07;;;;;;;;;;;16.90;99.90;;;;;;7306785;19;9649;-74
2023/06/24 05:39:38;;;;;;;;;;;16.90;99.90;;;;;;7305016;19;9854;-74
2023/06/24 05:42:10;;;;;;;;;;;17.00;99.90;;;;;;7305666;19;9472;-74
2023/06/24 05:44:39;;;;;;;;;;;17.10;99.90;;;;;;7302301;19;9275;-74
2023/06/24 05:47:09;;;;;;;;;;;17.20;99.90;;;;;;7304274;19;9360;-74
2023/06/24 05:49:38;;;;;;;;;;;17.20;99.90;;;;;;7305423;19;9294;-74
2023/06/24 05:52:07;;;;;;;;;;;17.30;99.90;;;;;;7308879;19;9352;-73
2023/06/24 05:54:39;;;;;;;;;;;17.40;99.90;;;;;;7306147;19;9419;-74
2023/06/24 05:57:10;;;;;;;;;;;17.60;99.90;;;;;;7304555;19;12044;-74
2023/06/24 05:59:39;;;;;;;;;;;17.60;99.90;;;;;;7304380;19;9258;-74
2023/06/24 06:02:08;;;;;;;;;;;17.80;99.90;;;;;;7306146;19;9245;-74
2023/06/24 06:04:37;;;;;;;;;;;17.90;99.90;;;;;;7304889;19;9275;-74
2023/06/24 06:07:07;;;;;;;;;;;18.00;99.90;;;;;;7302662;19;9261;-74
2023/06/24 06:09:39;;;;;;;;;;;17.90;99.90;;;;;;7304821;19;9249;-74
2023/06/24 06:12:09;;;;;;;;;;;18.00;99.90;;;;;;7303064;19;9242;-74
2023/06/24 06:14:38;;;;;;;;;;;18.00;99.90;;;;;;7308730;19;9089;-74
2023/06/24 06:17:08;;;;;;;;;;;18.10;99.90;;;;;;7312254;19;9210;-74
2023/06/24 06:19:39;;;;;;;;;;;18.30;99.90;;;;;;7311313;19;9314;-74
2023/06/24 06:22:09;;;;;;;;;;;18.50;99.90;;;;;;7311710;19;9426;-74
2023/06/24 06:24:40;;;;;;;;;;;18.80;99.90;;;;;;7310499;19;9470;-74
2023/06/24 06:27:13;;;;;;;;;;;19.10;99.90;;;;;;7312063;19;10833;-74
2023/06/24 06:29:42;;;;;;;;;;;19.30;99.90;;;;;;7311197;19;9443;-74
2023/06/24 06:32:11;;;;;;;;;;;19.50;99.90;;;;;;7311413;19;8944;-74
2023/06/24 06:34:40;;;;;;;;;;;19.40;99.90;;;;;;7310834;19;9291;-74
2023/06/24 06:37:09;;;;;;;;;;;19.40;99.90;;;;;;7313029;19;9257;-73
2023/06/24 06:39:41;;;;;;;;;;;19.50;99.90;;;;;;7309253;19;9317;-74
2023/06/24 06:42:10;;;;;;;;;;;19.90;99.90;;;;;;7311446;19;9454;-74
2023/06/24 06:44:39;;;;;;;;;;;20.40;99.90;;;;;;7310286;19;10320;-74
2023/06/24 06:47:09;;;;;;;;;;;20.70;99.90;;;;;;7311848;19;9661;-74
2023/06/24 06:49:38;;;;;;;;;;;20.80;99.90;;;;;;7309964;19;9269;-74
2023/06/24 06:52:09;;;;;;;;;;;20.70;99.90;;;;;;7314678;19;9216;-74
2023/06/24 06:54:40;;;;;;;;;;;20.90;99.90;;;;;;7310332;19;9331;-74
2023/06/24 06:57:09;;;;;;;;;;;21.00;99.90;;;;;;7309250;19;9290;-74
2023/06/24 06:59:38;;;;;;;;;;;21.30;99.90;;;;;;7308921;19;9388;-74
2023/06/24 07:02:08;;;;;;;;;;;21.50;99.90;;;;;;7310237;19;9479;-74
2023/06/24 07:04:37;;;;;;;;;;;22.30;99.90;;;;;;7309097;19;10854;-74
2023/06/24 07:07:07;;;;;;;;;;;23.60;99.40;;;;;;7306621;19;9288;-74
2023/06/24 07:09:36;;;;;;;;;;;24.60;95.00;;;;;;7309760;19;9269;-74
2023/06/24 07:12:09;;;;;;;;;;;24.90;93.00;;;;;;7308735;19;9534;-74
2023/06/24 07:14:38;;;;;;;;;;;24.60;90.40;;;;;;7308850;19;10082;-74
2023/06/24 07:17:08;;;;;;;;;;;24.30;91.30;;;;;;7308226;19;11042;-74
2023/06/24 07:19:37;;;;;;;;;;;24.00;91.40;;;;;;7310070;19;9237;-74
2023/06/24 07:22:06;;;;;;;;;;;24.10;91.10;;;;;;7308066;19;9265;-74
2023/06/24 07:24:36;;;;;;;;;;;24.10;90.70;;;;;;7309047;19;8944;-74
2023/06/24 07:27:08;;;;;;;;;;;24.00;90.80;;;;;;7308441;19;9335;-74
2023/06/24 07:29:38;;;;;;;;;;;23.90;90.40;;;;;;7309346;19;9393;-73
2023/06/24 07:32:08;;;;;;;;;;;23.90;90.90;;;;;;7313238;19;9081;-74
2023/06/24 07:34:37;;;;;;;;;;;24.00;91.00;;;;;;7309040;19;9221;-75
2023/06/24 07:37:06;;;;;;;;;;;24.30;90.60;;;;;;7310881;19;9399;-74
2023/06/24 07:39:35;;;;;;;;;;;24.80;89.80;;;;;;7309242;19;9334;-75
2023/06/24 07:42:04;;;;;;;;;;;25.20;87.10;;;;;;7311518;19;9167;-74
2023/06/24 07:44:36;;;;;;;;;;;25.70;84.80;;;;;;7309345;19;9237;-74
2023/06/24 07:47:06;;;;;;;;;;;26.00;82.30;;;;;;7310083;19;9136;-74
2023/06/24 07:49:35;;;;;;;;;;;26.20;79.80;;;;;;7307147;19;11401;-75
2023/06/24 07:52:04;;;;;;;;;;;26.40;80.20;;;;;;7313588;19;9376;-75
2023/06/24 07:54:33;;;;;;;;;;;27.00;77.90;;;;;;7308013;19;9360;-74
2023/06/24 07:57:02;;;;;;;;;;;27.00;77.40;;;;;;7309632;19;9409;-75
2023/06/24 07:59:32;;;;;;;;;;;27.10;75.60;;;;;;7310265;19;9461;-74
2023/06/24 08:02:03;;;;;;;;;;;26.60;74.60;;;;;;7308595;19;9213;-74
2023/06/24 08:04:32;;;;;;;;;;;26.30;75.20;;;;;;7307148;19;9075;-75
2023/06/24 08:07:02;;;;;;;;;;;25.90;74.90;;;;;;7305323;19;9340;-74
2023/06/24 08:09:31;;;;;;;;;;;25.70;75.70;;;;;;7305325;19;9414;-75
2023/06/24 08:12:00;;;;;;;;;;;25.30;77.60;;;;;;7308756;19;9007;-74
2023/06/24 08:14:29;;;;;;;;;;;25.10;79.40;;;;;;7309075;19;9233;-75
2023/06/24 08:16:58;;;;;;;;;;;25.10;80.00;;;;;;7306555;19;9263;-75
2023/06/24 08:19:30;;;;;;;;;;;25.10;79.80;;;;;;7307897;19;9590;-75
2023/06/24 08:21:59;;;;;;;;;;;25.10;79.10;;;;;;7306793;19;9469;-75
2023/06/24 08:24:28;;;;;;;;;;;25.20;79.00;;;;;;7308545;19;9306;-75
2023/06/24 08:26:57;;;;;;;;;;;25.50;78.80;;;;;;7308743;19;9411;-74
2023/06/24 08:29:26;;;;;;;;;;;25.80;77.10;;;;;;7306869;19;9257;-75
2023/06/24 08:31:56;;;;;;;;;;;26.10;76.00;;;;;;7307983;19;9256;-75
2023/06/24 08:34:25;;;;;;;;;;;26.20;75.30;;;;;;7307572;19;9403;-75
2023/06/24 08:36:57;;;;;;;;;;;25.90;76.10;;;;;;7304911;19;9257;-75
2023/06/24 08:39:26;;;;;;;;;;;25.80;76.30;;;;;;7306746;19;9509;-75
2023/06/24 08:41:56;;;;;;;;;;;25.60;77.40;;;;;;7305898;19;10039;-75
2023/06/24 08:44:25;;;;;;;;;;;25.40;76.10;;;;;;7306822;19;9169;-75
2023/06/24 08:46:55;;;;;;;;;;;25.30;77.40;;;;;;7305801;19;9285;-74
2023/06/24 08:49:32;;;;;;;;;;;25.10;77.80;;;;;;7304439;19;10619;-74
2023/06/24 08:52:10;;;;;;;;;;;24.80;77.70;;;;;;7312142;19;10135;-75
2023/06/24 08:54:41;;;;;;;;;;;24.80;78.50;;;;;;7304552;19;9289;-75
2023/06/24 08:57:14;;;;;;;;;;;24.80;78.60;;;;;;7307017;19;9290;-75
2023/06/24 08:59:44;;;;;;;;;;;24.80;78.40;;;;;;7304939;19;9249;-75
2023/06/24 09:02:13;;;;;;;;;;;24.70;77.80;;;;;;7307498;19;10446;-75
2023/06/24 09:04:43;;;;;;;;;;;24.60;78.20;;;;;;7305967;19;9267;-74
2023/06/24 09:07:15;;;;;;;;;;;24.60;78.00;;;;;;7304262;19;9665;-74
2023/06/24 09:09:47;;;;;;;;;;;24.60;77.20;;;;;;7304585;19;8992;-74
2023/06/24 09:12:17;;;;;;;;;;;24.70;77.40;;;;;;7308045;19;9375;-74
2023/06/24 09:14:51;;;;;;;;;;;24.70;76.80;;;;;;7309015;19;9221;-75
2023/06/24 09:17:22;;;;;;;;;;;24.90;76.70;;;;;;7307124;19;9273;-75
2023/06/24 09:19:51;;;;;;;;;;;24.90;77.00;;;;;;7304760;19;9350;-75
2023/06/24 09:22:23;;;;;;;;;;;25.10;76.60;;;;;;7307989;19;9261;-75
2023/06/24 09:24:52;;;;;;;;;;;25.20;75.00;;;;;;7304536;19;9491;-75
2023/06/24 09:27:23;;;;;;;;;;;25.30;75.50;;;;;;7307403;19;9632;-75
2023/06/24 09:29:52;;;;;;;;;;;25.10;74.30;;;;;;7303349;19;10177;-74
2023/06/24 09:32:22;;;;;;;;;;;25.00;74.60;;;;;;7306743;19;9266;-74
2023/06/24 09:34:51;;;;;;;;;;;24.90;74.70;;;;;;7303945;19;10169;-74
2023/06/24 09:37:31;;;;;;;;;;;24.90;74.70;;;;;;7306202;19;9606;-75
2023/06/24 09:40:01;;;;;;;;;;;24.90;74.50;;;;;;7305600;19;11255;-74
2023/06/24 09:42:30;;;;;;;;;;;25.00;73.90;;;;;;7305229;19;9019;-75
2023/06/24 09:44:59;;;;;;;;;;;24.90;73.70;;;;;;7306109;19;10166;-75
2023/06/24 09:47:28;;;;;;;;;;;25.00;73.20;;;;;;7305110;19;9469;-75
2023/06/24 09:49:57;;;;;;;;;;;24.90;72.90;;;;;;7308001;19;9415;-74
2023/06/24 09:52:31;;;;;;;;;;;24.90;73.20;;;;;;7313634;19;9281;-75
2023/06/24 09:55:04;;;;;;;;;;;24.80;73.30;;;;;;7313002;19;9245;-75
2023/06/24 09:57:36;;;;;;;;;;;24.80;73.10;;;;;;7312283;19;9756;-74
2023/06/24 10:00:07;;;;;;;;;;;24.80;73.20;;;;;;7312638;19;9533;-75
2023/06/24 10:02:37;;;;;;;;;;;24.80;73.30;;;;;;7312117;19;9639;-75
2023/06/24 10:05:07;;;;;;;;;;;24.70;73.30;;;;;;7311619;19;9177;-75
2023/06/24 10:07:41;;;;;;;;;;;24.70;73.20;;;;;;7312922;19;9267;-75
2023/06/24 10:10:11;;;;;;;;;;;24.80;74.20;;;;;;7310568;19;8944;-75
2023/06/24 10:12:41;;;;;;;;;;;24.90;72.70;;;;;;7312222;19;9202;-75
2023/06/24 10:15:11;;;;;;;;;;;24.90;72.60;;;;;;7311216;19;9249;-75
2023/06/24 10:17:40;;;;;;;;;;;24.70;72.60;;;;;;7313234;19;9588;-75
2023/06/24 10:20:10;;;;;;;;;;;24.70;72.70;;;;;;7309713;19;9013;-75
2023/06/24 10:22:48;;;;;;;;;;;24.70;72.60;;;;;;7313016;19;10892;-75
2023/06/24 10:25:17;;;;;;;;;;;24.80;72.40;;;;;;7312146;19;8945;-75
2023/06/24 10:27:47;;;;;;;;;;;24.90;72.30;;;;;;7314123;19;10355;-75
2023/06/24 10:30:23;;;;;;;;;;;25.00;72.10;;;;;;7307850;19;9282;-75
2023/06/24 10:32:56;;;;;;;;;;;25.20;71.80;;;;;;7314728;19;9301;-75
2023/06/24 10:35:29;;;;;;;;;;;25.30;71.10;;;;;;7311758;19;9321;-75
2023/06/24 10:38:03;;;;;;;;;;;25.40;71.00;;;;;;7312406;19;9322;-75
2023/06/24 10:40:40;;;;;;;;;;;25.40;70.50;;;;;;7311213;19;9547;-75
2023/06/24 10:43:30;;;;;;;;;;;25.30;70.50;;;;;;7311384;19;9279;-75
2023/06/24 10:46:01;;;;;;;;;;;25.20;70.90;;;;;;7310433;19;9867;-76
2023/06/24 10:48:30;;;;;;;;;;;25.20;71.00;;;;;;7312022;19;9480;-75
2023/06/24 10:51:00;;;;;;;;;;;25.40;71.10;;;;;;7314094;19;9401;-75
2023/06/24 10:53:32;;;;;;;;;;;25.30;70.50;;;;;;7312854;19;9325;-75
2023/06/24 10:56:02;;;;;;;;;;;25.30;70.80;;;;;;7309482;19;9492;-75
2023/06/24 10:58:31;;;;;;;;;;;25.30;70.60;;;;;;7310882;19;9426;-76
2023/06/24 11:01:10;;;;;;;;;;;25.40;70.10;;;;;;7309987;19;9335;-75
2023/06/24 11:03:42;;;;;;;;;;;25.50;68.60;;;;;;7309952;19;9265;-75
2023/06/24 11:06:14;;;;;;;;;;;25.40;69.60;;;;;;7308900;19;9395;-75
2023/06/24 11:08:49;;;;;;;;;;;25.30;70.10;;;;;;7310127;19;9344;-75
2023/06/24 11:11:23;;;;;;;;;;;25.10;70.40;;;;;;7309231;19;10150;-75
2023/06/24 11:13:53;;;;;;;;;;;24.90;71.10;;;;;;7310369;19;9706;-75
2023/06/24 11:16:25;;;;;;;;;;;25.00;70.80;;;;;;7310298;19;9217;-75
2023/06/24 11:18:54;;;;;;;;;;;25.20;70.20;;;;;;7310063;19;9232;-75
2023/06/24 11:21:32;;;;;;;;;;;25.20;70.00;;;;;;7309400;19;9264;-75
2023/06/24 11:24:06;;;;;;;;;;;25.10;69.80;;;;;;7311366;19;9289;-75
2023/06/24 11:26:36;;;;;;;;;;;25.10;69.70;;;;;;7310788;19;9535;-75
2023/06/24 11:29:12;;;;;;;;;;;25.30;69.60;;;;;;7309089;19;8944;-75
2023/06/24 11:31:41;;;;;;;;;;;25.50;69.30;;;;;;7315163;19;9246;-75
2023/06/24 11:34:12;;;;;;;;;;;25.60;68.90;;;;;;7308081;19;9262;-75
2023/06/24 11:36:41;;;;;;;;;;;25.60;68.50;;;;;;7310030;19;9330;-75
2023/06/24 11:39:23;;;;;;;;;;;25.70;68.30;;;;;;7308894;19;9463;-76
2023/06/24 11:41:53;;;;;;;;;;;25.90;65.90;;;;;;7308069;19;10883;-75
2023/06/24 11:44:23;;;;;;;;;;;25.90;67.20;;;;;;7307933;19;9512;-75
2023/06/24 11:46:52;;;;;;;;;;;25.80;66.50;;;;;;7309417;19;10383;-75
2023/06/24 11:49:22;;;;;;;;;;;25.80;67.50;;;;;;7306552;19;11674;-75
2023/06/24 11:51:52;;;;;;;;;;;25.60;67.70;;;;;;7312054;19;9320;-75
2023/06/24 11:54:24;;;;;;;;;;;25.60;67.70;;;;;;7308305;19;9415;-75
2023/06/24 11:56:54;;;;;;;;;;;25.70;67.40;;;;;;7309072;19;9276;-75
2023/06/24 11:59:25;;;;;;;;;;;25.70;66.30;;;;;;7308711;19;9513;-75
2023/06/24 12:02:03;;;;;;;;;;;25.80;67.00;;;;;;7308401;19;9413;-74
2023/06/24 12:04:33;;;;;;;;;;;25.70;66.90;;;;;;7307261;19;9595;-75
2023/06/24 12:07:03;;;;;;;;;;;25.70;67.30;;;;;;7305285;19;9396;-75
2023/06/24 12:09:35;;;;;;;;;;;25.80;67.10;;;;;;7307991;19;9074;-75
2023/06/24 12:12:04;;;;;;;;;;;25.90;66.60;;;;;;7306928;19;9236;-75
2023/06/24 12:14:33;;;;;;;;;;;26.10;65.90;;;;;;7308858;19;10400;-75
2023/06/24 12:17:02;;;;;;;;;;;26.10;65.60;;;;;;7308134;19;9253;-75
2023/06/24 12:19:31;;;;;;;;;;;26.10;65.80;;;;;;7307979;19;9685;-75
2023/06/24 12:22:00;;;;;;;;;;;25.80;66.00;;;;;;7307499;19;10103;-75
2023/06/24 12:24:29;;;;;;;;;;;25.70;66.50;;;;;;7306751;19;9257;-75
2023/06/24 12:27:01;;;;;;;;;;;25.70;66.90;;;;;;7307963;19;9361;-75
2023/06/24 12:29:30;;;;;;;;;;;25.60;67.10;;;;;;7306132;19;12368;-75
2023/06/24 12:31:59;;;;;;;;;;;25.70;66.80;;;;;;7309337;19;9352;-75
2023/06/24 12:34:29;;;;;;;;;;;25.80;66.50;;;;;;7306224;19;9429;-75
2023/06/24 12:36:58;;;;;;;;;;;25.70;66.80;;;;;;7309163;19;9257;-75
2023/06/24 12:39:27;;;;;;;;;;;25.60;66.20;;;;;;7306256;19;9495;-75
2023/06/24 12:41:56;;;;;;;;;;;25.70;66.80;;;;;;7308215;19;10309;-75
2023/06/24 12:44:28;;;;;;;;;;;25.80;64.20;;;;;;7306230;19;9431;-75
2023/06/24 12:46:57;;;;;;;;;;;25.90;64.20;;;;;;7308703;19;9521;-75
2023/06/24 12:49:26;;;;;;;;;;;26.10;65.10;;;;;;7305262;19;9298;-75
2023/06/24 12:51:55;;;;;;;;;;;26.10;65.20;;;;;;7312558;19;9178;-75
2023/06/24 12:54:24;;;;;;;;;;;26.00;65.10;;;;;;7305798;19;9108;-75
2023/06/24 12:56:53;;;;;;;;;;;26.00;65.50;;;;;;7307558;19;9450;-75
2023/06/24 12:59:22;;;;;;;;;;;26.10;65.50;;;;;;7306041;19;8945;-75
2023/06/24 13:01:54;;;;;;;;;;;26.20;65.00;;;;;;7305703;19;9276;-75
2023/06/24 13:04:24;;;;;;;;;;;26.10;64.90;;;;;;7306518;19;9318;-75
2023/06/24 13:06:54;;;;;;;;;;;26.00;65.20;;;;;;7304939;19;9352;-75
2023/06/24 13:09:23;;;;;;;;;;;25.90;65.40;;;;;;7305718;19;12096;-75
2023/06/24 13:11:52;;;;;;;;;;;25.80;65.70;;;;;;7306199;19;9952;-75
2023/06/24 13:14:21;;;;;;;;;;;25.70;65.70;;;;;;7307567;19;11221;-75
2023/06/24 13:16:50;;;;;;;;;;;25.60;66.00;;;;;;7308280;19;12143;-75
2023/06/24 13:19:22;;;;;;;;;;;25.60;66.30;;;;;;7309518;19;9392;-75
2023/06/24 13:21:51;;;;;;;;;;;25.60;66.30;;;;;;7308351;19;11174;-75
2023/06/24 13:24:20;;;;;;;;;;;25.70;66.70;;;;;;7310184;19;9587;-75
2023/06/24 13:26:49;;;;;;;;;;;25.60;66.40;;;;;;7313429;19;9245;-75
2023/06/24 13:29:19;;;;;;;;;;;25.50;66.60;;;;;;7312269;19;9281;-75
2023/06/24 13:31:49;;;;;;;;;;;25.50;66.60;;;;;;7314069;19;10636;-75
2023/06/24 13:34:18;;;;;;;;;;;25.60;66.80;;;;;;7312827;19;9280;-75
2023/06/24 13:36:50;;;;;;;;;;;25.60;66.80;;;;;;7314132;19;9237;-75
2023/06/24 13:39:22;;;;;;;;;;;25.70;66.60;;;;;;7312784;19;10078;-76
2023/06/24 13:41:52;;;;;;;;;;;25.70;67.70;;;;;;7314085;19;9249;-75
2023/06/24 13:44:21;;;;;;;;;;;25.80;67.20;;;;;;7311602;19;11217;-75
2023/06/24 13:46:53;;;;;;;;;;;25.90;66.90;;;;;;7313441;19;9475;-75
2023/06/24 13:49:22;;;;;;;;;;;26.00;68.90;;;;;;7310943;19;9296;-75
2023/06/24 13:51:54;;;;;;;;;;;26.00;74.80;;;;;;7316167;19;9264;-75
2023/06/24 13:54:23;;;;;;;;;;;26.10;79.60;;;;;;7311746;19;9454;-75
2023/06/24 13:56:52;;;;;;;;;;;25.70;83.00;;;;;;7312203;19;9387;-75
2023/06/24 13:59:21;;;;;;;;;;;25.30;85.00;;;;;;7310782;19;9272;-75
2023/06/24 14:01:50;;;;;;;;;;;24.90;87.30;;;;;;7313060;19;9497;-75
2023/06/24 14:04:19;;;;;;;;;;;24.60;90.30;;;;;;7312109;19;9244;-75
2023/06/24 14:06:48;;;;;;;;;;;24.30;92.60;;;;;;7308527;19;9272;-75
2023/06/24 14:09:20;;;;;;;;;;;24.20;94.00;;;;;;7312062;19;9306;-75
2023/06/24 14:11:49;;;;;;;;;;;24.20;95.10;;;;;;7310881;19;9215;-75
2023/06/24 14:14:18;;;;;;;;;;;24.20;96.60;;;;;;7316023;19;10065;-75
2023/06/24 14:16:47;;;;;;;;;;;24.20;96.90;;;;;;7309952;19;10582;-75
2023/06/24 14:19:16;;;;;;;;;;;24.00;97.20;;;;;;7312407;19;9320;-75
2023/06/24 14:21:45;;;;;;;;;;;24.00;98.00;;;;;;7310869;19;9574;-75
2023/06/24 14:24:14;;;;;;;;;;;24.10;97.60;;;;;;7313061;19;9375;-75
2023/06/24 14:26:48;;;;;;;;;;;24.10;98.80;;;;;;7312644;19;9352;-75
2023/06/24 14:29:18;;;;;;;;;;;24.30;98.70;;;;;;7311310;19;9294;-75
2023/06/24 14:31:47;;;;;;;;;;;24.40;96.50;;;;;;7306241;19;9253;-77
2023/06/24 14:34:16;;;;;;;;;;;24.40;96.90;;;;;;7310202;19;9053;-75
2023/06/24 14:36:47;;;;;;;;;;;24.50;96.90;;;;;;7308570;19;10841;-77
2023/06/24 14:39:18;;;;;;;;;;;24.50;96.20;;;;;;7311830;19;9316;-75
2023/06/24 14:41:50;;;;;;;;;;;24.50;96.30;;;;;;7309382;19;9375;-75
2023/06/24 14:44:19;;;;;;;;;;;24.70;96.80;;;;;;7310086;19;9872;-75
2023/06/24 14:46:48;;;;;;;;;;;24.70;96.00;;;;;;7310374;19;9260;-75
2023/06/24 14:49:17;;;;;;;;;;;24.70;96.40;;;;;;7310556;19;9387;-75